sensor_id;sensor_type;location;lat;lon;timestamp;pressure;altitude;pressure_sealevel;temperature;humidity
21588;BME280;10956;48.878;13.316;2023-03-15T00:00:02;93334.19;;;4.29;100.00
21588;BME280;10956;48.878;13.316;2023-03-15T00:02:28;93327.63;;;4.21;100.00
21588;BME280;10956;48.878;13.316;2023-03-15T00:04:53;93333.38;;;4.24;100.00
21588;BME280;10956;48.878;13.316;2023-03-15T00:07:19;93327.63;;;4.21;100.00
21588;BME280;10956;48.878;13.316;2023-03-15T00:09:51;93337.25;;;4.21;100.00
21588;BME280;10956;48.878;13.316;2023-03-15T00:12:17;93335.97;;;4.24;100.00
21588;BME280;10956;48.878;13.316;2023-03-15T00:14:43;93330.25;;;4.27;100.00
21588;BME280;10956;48.878;13.316;2023-03-15T00:17:08;93340.94;;;4.25;100.00
21588;BME280;10956;48.878;13.316;2023-03-15T00:19:34;93344.53;;;4.19;100.00
21588;BME280;10956;48.878;13.316;2023-03-15T00:21:59;93344.53;;;4.19;100.00
21588;BME280;10956;48.878;13.316;2023-03-15T00:24:25;93335.44;;;4.21;100.00
21588;BME280;10956;48.878;13.316;2023-03-15T00:26:50;93334.41;;;4.22;100.00
21588;BME280;10956;48.878;13.316;2023-03-15T00:29:17;93339.31;;;4.19;100.00
21588;BME280;10956;48.878;13.316;2023-03-15T00:31:43;93343.75;;;4.18;100.00
21588;BME280;10956;48.878;13.316;2023-03-15T00:34:08;93344.53;;;4.19;100.00
21588;BME280;10956;48.878;13.316;2023-03-15T00:36:34;93347.63;;;4.16;100.00
21588;BME280;10956;48.878;13.316;2023-03-15T00:38:59;93346.31;;;4.13;100.00
21588;BME280;10956;48.878;13.316;2023-03-15T00:41:25;93355.16;;;4.12;100.00
21588;BME280;10956;48.878;13.316;2023-03-15T00:43:50;93342.38;;;4.11;100.00
21588;BME280;10956;48.878;13.316;2023-03-15T00:46:17;93348.09;;;4.08;100.00
21588;BME280;10956;48.878;13.316;2023-03-15T00:48:43;93349.06;;;4.02;100.00
21588;BME280;10956;48.878;13.316;2023-03-15T00:51:13;93346.69;;;4.00;100.00
21588;BME280;10956;48.878;13.316;2023-03-15T00:53:41;93339.38;;;3.97;100.00
21588;BME280;10956;48.878;13.316;2023-03-15T00:56:13;93348.84;;;3.81;100.00
21588;BME280;10956;48.878;13.316;2023-03-15T00:58:39;93351.69;;;3.80;100.00
21588;BME280;10956;48.878;13.316;2023-03-15T01:01:11;93355.53;;;3.72;100.00
21588;BME280;10956;48.878;13.316;2023-03-15T01:03:37;93346.97;;;3.77;100.00
21588;BME280;10956;48.878;13.316;2023-03-15T01:06:07;93350.66;;;3.81;100.00
21588;BME280;10956;48.878;13.316;2023-03-15T01:08:33;93355.16;;;3.85;100.00
21588;BME280;10956;48.878;13.316;2023-03-15T01:11:07;93346.50;;;3.80;100.00
21588;BME280;10956;48.878;13.316;2023-03-15T01:13:33;93353.75;;;3.78;100.00
21588;BME280;10956;48.878;13.316;2023-03-15T01:15:58;93350.31;;;3.72;100.00
21588;BME280;10956;48.878;13.316;2023-03-15T01:18:24;93346.72;;;3.78;100.00
21588;BME280;10956;48.878;13.316;2023-03-15T01:20:50;93345.94;;;3.78;100.00
21588;BME280;10956;48.878;13.316;2023-03-15T01:23:15;93345.09;;;3.72;100.00
21588;BME280;10956;48.878;13.316;2023-03-15T01:25:40;93352.13;;;3.72;100.00
21588;BME280;10956;48.878;13.316;2023-03-15T01:28:06;93349.81;;;3.75;100.00
21588;BME280;10956;48.878;13.316;2023-03-15T01:30:32;93345.41;;;3.76;100.00
21588;BME280;10956;48.878;13.316;2023-03-15T01:32:58;93343.03;;;3.74;100.00
21588;BME280;10956;48.878;13.316;2023-03-15T01:35:23;93344.31;;;3.72;100.00
21588;BME280;10956;48.878;13.316;2023-03-15T01:37:49;93340.44;;;3.74;100.00
21588;BME280;10956;48.878;13.316;2023-03-15T01:40:15;93340.91;;;3.71;100.00
21588;BME280;10956;48.878;13.316;2023-03-15T01:48:39;93341.91;;;3.43;100.00
21588;BME280;10956;48.878;13.316;2023-03-15T01:53:46;93337.66;;;3.37;100.00
21588;BME280;10956;48.878;13.316;2023-03-15T01:56:13;93341.84;;;3.38;100.00
21588;BME280;10956;48.878;13.316;2023-03-15T01:58:40;93338.75;;;3.41;100.00
21588;BME280;10956;48.878;13.316;2023-03-15T02:01:08;93338.09;;;3.51;100.00
21588;BME280;10956;48.878;13.316;2023-03-15T02:03:36;93338.09;;;3.51;100.00
21588;BME280;10956;48.878;13.316;2023-03-15T02:06:06;93340.38;;;3.47;100.00
21588;BME280;10956;48.878;13.316;2023-03-15T02:08:38;93341.91;;;3.43;100.00
21588;BME280;10956;48.878;13.316;2023-03-15T02:11:05;93346.63;;;3.46;100.00
21588;BME280;10956;48.878;13.316;2023-03-15T02:13:32;93376.84;;;3.47;100.00
21588;BME280;10956;48.878;13.316;2023-03-15T02:15:59;93362.72;;;3.43;100.00
21588;BME280;10956;48.878;13.316;2023-03-15T02:18:24;93369.88;;;3.31;100.00
21588;BME280;10956;48.878;13.316;2023-03-15T02:23:37;93362.47;;;3.23;100.00
21588;BME280;10956;48.878;13.316;2023-03-15T02:28:46;93358.84;;;3.24;100.00
21588;BME280;10956;48.878;13.316;2023-03-15T02:31:13;93356.41;;;3.17;100.00
21588;BME280;10956;48.878;13.316;2023-03-15T02:33:50;93356.66;;;3.16;100.00
21588;BME280;10956;48.878;13.316;2023-03-15T02:36:25;93359.66;;;3.08;100.00
21588;BME280;10956;48.878;13.316;2023-03-15T02:38:51;93364.56;;;3.04;100.00
21588;BME280;10956;48.878;13.316;2023-03-15T02:41:29;93375.06;;;2.92;100.00
21588;BME280;10956;48.878;13.316;2023-03-15T02:44:01;93385.25;;;2.77;100.00
21588;BME280;10956;48.878;13.316;2023-03-15T02:46:28;93385.09;;;2.67;100.00
21588;BME280;10956;48.878;13.316;2023-03-15T02:48:54;93397.53;;;2.65;100.00
21588;BME280;10956;48.878;13.316;2023-03-15T02:51:22;93401.72;;;2.66;100.00
21588;BME280;10956;48.878;13.316;2023-03-15T02:53:47;93408.25;;;2.69;100.00
21588;BME280;10956;48.878;13.316;2023-03-15T02:56:13;93413.31;;;2.75;100.00
21588;BME280;10956;48.878;13.316;2023-03-15T02:58:39;93420.72;;;2.83;100.00
21588;BME280;10956;48.878;13.316;2023-03-15T03:01:05;93426.72;;;2.67;100.00
21588;BME280;10956;48.878;13.316;2023-03-15T03:03:30;93416.22;;;2.62;100.00
21588;BME280;10956;48.878;13.316;2023-03-15T03:05:56;93422.75;;;2.48;100.00
21588;BME280;10956;48.878;13.316;2023-03-15T03:08:21;93430.47;;;2.43;100.00
21588;BME280;10956;48.878;13.316;2023-03-15T03:10:46;93438.72;;;2.11;100.00
21588;BME280;10956;48.878;13.316;2023-03-15T03:13:12;93447.25;;;1.95;100.00
21588;BME280;10956;48.878;13.316;2023-03-15T03:15:39;93449.66;;;1.85;100.00
21588;BME280;10956;48.878;13.316;2023-03-15T03:18:04;93441.75;;;1.80;100.00
21588;BME280;10956;48.878;13.316;2023-03-15T03:20:29;93446.63;;;1.76;100.00
21588;BME280;10956;48.878;13.316;2023-03-15T03:22:55;93459.84;;;1.75;100.00
21588;BME280;10956;48.878;13.316;2023-03-15T03:25:20;93456.69;;;1.73;100.00
21588;BME280;10956;48.878;13.316;2023-03-15T03:27:50;93475.31;;;1.81;100.00
21588;BME280;10956;48.878;13.316;2023-03-15T03:30:16;93469.88;;;1.83;100.00
21588;BME280;10956;48.878;13.316;2023-03-15T03:32:41;93483.78;;;1.77;100.00
21588;BME280;10956;48.878;13.316;2023-03-15T03:35:07;93471.16;;;1.69;100.00
21588;BME280;10956;48.878;13.316;2023-03-15T03:37:33;93480.41;;;1.65;100.00
21588;BME280;10956;48.878;13.316;2023-03-15T03:40:00;93480.09;;;1.49;100.00
21588;BME280;10956;48.878;13.316;2023-03-15T03:42:25;93482.00;;;1.42;100.00
21588;BME280;10956;48.878;13.316;2023-03-15T03:44:50;93492.41;;;1.42;100.00
21588;BME280;10956;48.878;13.316;2023-03-15T03:47:18;93492.19;;;1.44;100.00
21588;BME280;10956;48.878;13.316;2023-03-15T03:49:43;93507.53;;;1.45;100.00
21588;BME280;10956;48.878;13.316;2023-03-15T03:52:08;93499.06;;;1.50;100.00
21588;BME280;10956;48.878;13.316;2023-03-15T03:54:34;93511.81;;;1.40;100.00
21588;BME280;10956;48.878;13.316;2023-03-15T03:56:59;93516.44;;;1.49;100.00
21588;BME280;10956;48.878;13.316;2023-03-15T03:59:24;93527.50;;;1.45;100.00
21588;BME280;10956;48.878;13.316;2023-03-15T04:01:50;93530.31;;;1.43;100.00
21588;BME280;10956;48.878;13.316;2023-03-15T04:04:15;93535.28;;;1.56;100.00
21588;BME280;10956;48.878;13.316;2023-03-15T04:06:41;93536.88;;;1.57;100.00
21588;BME280;10956;48.878;13.316;2023-03-15T04:09:12;93540.81;;;1.60;100.00
21588;BME280;10956;48.878;13.316;2023-03-15T04:11:39;93550.53;;;1.65;100.00
21588;BME280;10956;48.878;13.316;2023-03-15T04:14:09;93560.81;;;1.59;100.00
21588;BME280;10956;48.878;13.316;2023-03-15T04:16:34;93571.44;;;1.70;100.00
21588;BME280;10956;48.878;13.316;2023-03-15T04:19:00;93580.69;;;1.66;98.22
21588;BME280;10956;48.878;13.316;2023-03-15T04:21:25;93585.44;;;1.69;98.09
21588;BME280;10956;48.878;13.316;2023-03-15T04:23:59;93606.31;;;1.62;96.93
21588;BME280;10956;48.878;13.316;2023-03-15T04:26:25;93602.38;;;1.59;96.41
21588;BME280;10956;48.878;13.316;2023-03-15T04:28:55;93610.59;;;1.56;96.88
21588;BME280;10956;48.878;13.316;2023-03-15T04:31:21;93625.28;;;1.51;96.52
21588;BME280;10956;48.878;13.316;2023-03-15T04:33:53;93629.22;;;1.53;96.85
21588;BME280;10956;48.878;13.316;2023-03-15T04:36:20;93634.53;;;1.47;97.18
21588;BME280;10956;48.878;13.316;2023-03-15T04:38:47;93642.97;;;1.42;97.78
21588;BME280;10956;48.878;13.316;2023-03-15T04:41:16;93646.34;;;1.31;98.39
21588;BME280;10956;48.878;13.316;2023-03-15T04:43:42;93651.53;;;1.31;98.68
21588;BME280;10956;48.878;13.316;2023-03-15T04:46:08;93663.50;;;1.32;99.08
21588;BME280;10956;48.878;13.316;2023-03-15T04:48:35;93656.72;;;1.31;100.00
21588;BME280;10956;48.878;13.316;2023-03-15T04:51:00;93655.34;;;1.28;100.00
21588;BME280;10956;48.878;13.316;2023-03-15T04:53:26;93658.66;;;1.36;100.00
21588;BME280;10956;48.878;13.316;2023-03-15T04:55:51;93662.34;;;1.28;100.00
21588;BME280;10956;48.878;13.316;2023-03-15T04:58:17;93672.06;;;1.33;100.00
21588;BME280;10956;48.878;13.316;2023-03-15T05:00:43;93672.72;;;1.28;100.00
21588;BME280;10956;48.878;13.316;2023-03-15T05:03:08;93676.44;;;1.20;100.00
21588;BME280;10956;48.878;13.316;2023-03-15T05:05:34;93681.28;;;1.17;100.00
21588;BME280;10956;48.878;13.316;2023-03-15T05:07:59;93698.06;;;1.14;100.00
21588;BME280;10956;48.878;13.316;2023-03-15T05:10:26;93700.31;;;1.11;100.00
21588;BME280;10956;48.878;13.316;2023-03-15T05:12:54;93703.25;;;1.14;100.00
21588;BME280;10956;48.878;13.316;2023-03-15T05:15:19;93713.56;;;1.21;100.00
21588;BME280;10956;48.878;13.316;2023-03-15T05:17:44;93711.97;;;1.20;100.00
21588;BME280;10956;48.878;13.316;2023-03-15T05:20:11;93716.81;;;1.16;100.00
21588;BME280;10956;48.878;13.316;2023-03-15T05:22:38;93717.78;;;1.04;100.00
21588;BME280;10956;48.878;13.316;2023-03-15T05:25:04;93713.72;;;1.08;100.00
21588;BME280;10956;48.878;13.316;2023-03-15T05:27:30;93711.72;;;1.10;100.00
21588;BME280;10956;48.878;13.316;2023-03-15T05:29:59;93731.75;;;1.03;100.00
21588;BME280;10956;48.878;13.316;2023-03-15T05:32:29;93732.25;;;0.93;100.00
21588;BME280;10956;48.878;13.316;2023-03-15T05:35:02;93743.38;;;1.00;100.00
21588;BME280;10956;48.878;13.316;2023-03-15T05:37:28;93748.34;;;1.02;100.00
21588;BME280;10956;48.878;13.316;2023-03-15T05:39:54;93752.00;;;1.12;100.00
21588;BME280;10956;48.878;13.316;2023-03-15T05:42:19;93750.34;;;1.18;100.00
21588;BME280;10956;48.878;13.316;2023-03-15T05:44:51;93748.44;;;1.25;100.00
21588;BME280;10956;48.878;13.316;2023-03-15T05:47:16;93765.88;;;1.36;100.00
21588;BME280;10956;48.878;13.316;2023-03-15T05:49:41;93763.69;;;1.51;100.00
21588;BME280;10956;48.878;13.316;2023-03-15T05:52:07;93776.22;;;1.54;100.00
21588;BME280;10956;48.878;13.316;2023-03-15T05:54:32;93775.13;;;1.62;100.00
21588;BME280;10956;48.878;13.316;2023-03-15T05:56:58;93782.81;;;1.69;100.00
21588;BME280;10956;48.878;13.316;2023-03-15T05:59:23;93783.25;;;1.66;100.00
21588;BME280;10956;48.878;13.316;2023-03-15T06:01:48;93794.81;;;1.70;100.00
21588;BME280;10956;48.878;13.316;2023-03-15T06:04:14;93803.53;;;1.75;100.00
21588;BME280;10956;48.878;13.316;2023-03-15T06:06:39;93813.47;;;1.78;100.00
21588;BME280;10956;48.878;13.316;2023-03-15T06:09:04;93822.19;;;1.84;100.00
21588;BME280;10956;48.878;13.316;2023-03-15T06:11:30;93831.25;;;1.93;100.00
21588;BME280;10956;48.878;13.316;2023-03-15T06:13:55;93826.75;;;2.00;100.00
21588;BME280;10956;48.878;13.316;2023-03-15T06:16:21;93831.81;;;1.95;100.00
21588;BME280;10956;48.878;13.316;2023-03-15T06:18:46;93840.19;;;1.97;100.00
21588;BME280;10956;48.878;13.316;2023-03-15T06:21:11;93842.78;;;1.97;100.00
21588;BME280;10956;48.878;13.316;2023-03-15T06:23:37;93850.94;;;1.71;100.00
21588;BME280;10956;48.878;13.316;2023-03-15T06:26:02;93860.47;;;1.58;100.00
21588;BME280;10956;48.878;13.316;2023-03-15T06:28:28;93871.09;;;1.57;100.00
21588;BME280;10956;48.878;13.316;2023-03-15T06:30:53;93871.16;;;1.50;100.00
21588;BME280;10956;48.878;13.316;2023-03-15T06:33:19;93876.63;;;1.42;100.00
21588;BME280;10956;48.878;13.316;2023-03-15T06:35:46;93890.63;;;1.41;100.00
21588;BME280;10956;48.878;13.316;2023-03-15T06:38:11;93897.06;;;1.39;100.00
21588;BME280;10956;48.878;13.316;2023-03-15T06:40:38;93899.88;;;1.37;100.00
21588;BME280;10956;48.878;13.316;2023-03-15T06:43:03;93912.06;;;1.37;100.00
21588;BME280;10956;48.878;13.316;2023-03-15T06:45:31;93917.75;;;1.45;100.00
21588;BME280;10956;48.878;13.316;2023-03-15T06:47:56;93919.47;;;1.51;100.00
21588;BME280;10956;48.878;13.316;2023-03-15T06:50:22;93928.72;;;1.66;100.00
21588;BME280;10956;48.878;13.316;2023-03-15T06:52:47;93926.97;;;1.96;100.00
21588;BME280;10956;48.878;13.316;2023-03-15T06:55:12;93933.09;;;2.32;100.00
21588;BME280;10956;48.878;13.316;2023-03-15T06:57:42;93937.34;;;2.56;100.00
21588;BME280;10956;48.878;13.316;2023-03-15T07:00:08;93928.72;;;2.85;100.00
21588;BME280;10956;48.878;13.316;2023-03-15T07:02:35;93942.06;;;3.01;99.50
21588;BME280;10956;48.878;13.316;2023-03-15T07:05:03;93948.53;;;2.98;99.16
21588;BME280;10956;48.878;13.316;2023-03-15T07:07:29;93946.88;;;2.62;100.00
21588;BME280;10956;48.878;13.316;2023-03-15T07:09:54;93967.69;;;2.32;100.00
21588;BME280;10956;48.878;13.316;2023-03-15T07:12:20;93952.34;;;2.12;100.00
21588;BME280;10956;48.878;13.316;2023-03-15T07:14:45;93955.97;;;2.11;100.00
21588;BME280;10956;48.878;13.316;2023-03-15T07:17:11;93957.25;;;2.20;100.00
21588;BME280;10956;48.878;13.316;2023-03-15T07:19:37;93967.91;;;2.31;100.00
21588;BME280;10956;48.878;13.316;2023-03-15T07:22:02;93979.03;;;2.38;100.00
21588;BME280;10956;48.878;13.316;2023-03-15T07:24:28;93978.97;;;2.26;100.00
21588;BME280;10956;48.878;13.316;2023-03-15T07:26:53;93979.53;;;2.28;100.00
21588;BME280;10956;48.878;13.316;2023-03-15T07:29:23;93972.81;;;2.39;100.00
21588;BME280;10956;48.878;13.316;2023-03-15T07:31:49;93982.38;;;2.56;100.00
21588;BME280;10956;48.878;13.316;2023-03-15T07:34:16;93982.28;;;2.63;100.00
21588;BME280;10956;48.878;13.316;2023-03-15T07:36:41;93998.84;;;2.50;100.00
21588;BME280;10956;48.878;13.316;2023-03-15T07:39:07;93997.09;;;2.33;100.00
21588;BME280;10956;48.878;13.316;2023-03-15T07:41:32;94000.00;;;2.24;100.00
21588;BME280;10956;48.878;13.316;2023-03-15T07:43:58;94010.38;;;2.24;100.00
21588;BME280;10956;48.878;13.316;2023-03-15T07:46:24;94014.00;;;2.23;100.00
21588;BME280;10956;48.878;13.316;2023-03-15T07:48:49;94000.25;;;2.35;100.00
21588;BME280;10956;48.878;13.316;2023-03-15T07:51:15;94001.50;;;2.62;100.00
21588;BME280;10956;48.878;13.316;2023-03-15T07:53:40;94004.50;;;2.77;100.00
21588;BME280;10956;48.878;13.316;2023-03-15T07:56:06;94004.66;;;2.94;100.00
21588;BME280;10956;48.878;13.316;2023-03-15T07:58:31;94011.97;;;2.85;100.00
21588;BME280;10956;48.878;13.316;2023-03-15T08:00:57;94006.41;;;2.70;100.00
21588;BME280;10956;48.878;13.316;2023-03-15T08:03:23;93996.13;;;2.75;100.00
21588;BME280;10956;48.878;13.316;2023-03-15T08:05:49;93999.38;;;2.71;100.00
21588;BME280;10956;48.878;13.316;2023-03-15T08:08:15;94004.09;;;2.62;100.00
21588;BME280;10956;48.878;13.316;2023-03-15T08:10:40;94007.50;;;2.63;100.00
21588;BME280;10956;48.878;13.316;2023-03-15T08:13:07;94003.44;;;2.67;100.00
21588;BME280;10956;48.878;13.316;2023-03-15T08:15:32;94012.13;;;2.90;100.00
21588;BME280;10956;48.878;13.316;2023-03-15T08:17:58;94004.22;;;3.09;100.00
21588;BME280;10956;48.878;13.316;2023-03-15T08:20:24;94010.72;;;3.30;99.57
21588;BME280;10956;48.878;13.316;2023-03-15T08:22:49;94013.66;;;3.33;98.97
21588;BME280;10956;48.878;13.316;2023-03-15T08:25:17;94008.91;;;3.53;98.18
21588;BME280;10956;48.878;13.316;2023-03-15T08:27:43;94009.03;;;3.59;97.73
21588;BME280;10956;48.878;13.316;2023-03-15T08:30:10;94011.53;;;3.53;97.75
21588;BME280;10956;48.878;13.316;2023-03-15T08:32:40;94017.88;;;3.46;97.67
21588;BME280;10956;48.878;13.316;2023-03-15T08:35:06;94018.88;;;3.33;97.51
21588;BME280;10956;48.878;13.316;2023-03-15T08:37:32;94024.75;;;3.40;97.28
21588;BME280;10956;48.878;13.316;2023-03-15T08:39:57;94023.53;;;3.54;96.14
21588;BME280;10956;48.878;13.316;2023-03-15T08:42:28;94019.09;;;3.32;94.71
21588;BME280;10956;48.878;13.316;2023-03-15T08:44:54;94024.38;;;3.13;95.61
21588;BME280;10956;48.878;13.316;2023-03-15T08:47:23;94029.00;;;3.00;95.08
21588;BME280;10956;48.878;13.316;2023-03-15T08:49:49;94025.56;;;2.87;95.92
21588;BME280;10956;48.878;13.316;2023-03-15T08:52:20;94028.41;;;2.86;96.12
21588;BME280;10956;48.878;13.316;2023-03-15T08:54:47;94031.34;;;2.89;95.48
21588;BME280;10956;48.878;13.316;2023-03-15T08:57:12;94039.50;;;2.93;92.00
21588;BME280;10956;48.878;13.316;2023-03-15T08:59:38;94043.38;;;3.02;90.32
21588;BME280;10956;48.878;13.316;2023-03-15T09:02:04;94037.97;;;3.15;87.47
21588;BME280;10956;48.878;13.316;2023-03-15T09:04:31;94048.00;;;3.00;85.75
21588;BME280;10956;48.878;13.316;2023-03-15T09:06:57;94047.38;;;3.16;88.58
21588;BME280;10956;48.878;13.316;2023-03-15T09:09:22;94053.38;;;3.17;87.14
21588;BME280;10956;48.878;13.316;2023-03-15T09:11:48;94047.06;;;3.36;87.22
21588;BME280;10956;48.878;13.316;2023-03-15T09:14:14;94042.66;;;3.48;86.57
21588;BME280;10956;48.878;13.316;2023-03-15T09:16:39;94051.28;;;3.49;86.18
21588;BME280;10956;48.878;13.316;2023-03-15T09:19:05;94051.94;;;3.44;83.49
21588;BME280;10956;48.878;13.316;2023-03-15T09:21:30;94047.75;;;3.32;82.63
21588;BME280;10956;48.878;13.316;2023-03-15T09:23:55;94043.84;;;3.11;82.92
21588;BME280;10956;48.878;13.316;2023-03-15T09:26:21;94048.94;;;3.06;84.10
21588;BME280;10956;48.878;13.316;2023-03-15T09:28:47;94059.78;;;3.03;84.98
21588;BME280;10956;48.878;13.316;2023-03-15T09:31:13;94050.19;;;3.15;85.42
21588;BME280;10956;48.878;13.316;2023-03-15T09:33:38;94049.19;;;3.16;84.48
21588;BME280;10956;48.878;13.316;2023-03-15T09:36:03;94052.22;;;3.13;84.13
21588;BME280;10956;48.878;13.316;2023-03-15T09:38:30;94047.16;;;3.18;85.01
21588;BME280;10956;48.878;13.316;2023-03-15T09:40:57;94053.28;;;3.23;84.60
21588;BME280;10956;48.878;13.316;2023-03-15T09:43:50;94059.66;;;3.39;83.93
21588;BME280;10956;48.878;13.316;2023-03-15T09:49:02;94057.72;;;3.35;84.13
21588;BME280;10956;48.878;13.316;2023-03-15T09:51:40;94073.00;;;3.31;84.50
21588;BME280;10956;48.878;13.316;2023-03-15T09:54:11;94062.13;;;3.34;83.94
21588;BME280;10956;48.878;13.316;2023-03-15T09:56:42;94056.47;;;3.37;83.95
21588;BME280;10956;48.878;13.316;2023-03-15T09:59:10;94061.81;;;3.42;83.86
21588;BME280;10956;48.878;13.316;2023-03-15T10:01:38;94049.25;;;3.51;84.40
21588;BME280;10956;48.878;13.316;2023-03-15T10:07:05;94046.19;;;3.77;84.23
21588;BME280;10956;48.878;13.316;2023-03-15T10:09:35;94046.38;;;4.22;83.82
21588;BME280;10956;48.878;13.316;2023-03-15T10:12:09;94049.00;;;4.63;84.43
21588;BME280;10956;48.878;13.316;2023-03-15T10:17:44;94055.84;;;4.80;82.18
21588;BME280;10956;48.878;13.316;2023-03-15T10:20:19;94054.47;;;4.90;81.80
21588;BME280;10956;48.878;13.316;2023-03-15T10:23:14;94053.81;;;4.82;81.96
21588;BME280;10956;48.878;13.316;2023-03-15T10:25:45;94058.88;;;4.89;82.04
21588;BME280;10956;48.878;13.316;2023-03-15T10:28:13;94060.00;;;4.93;81.40
21588;BME280;10956;48.878;13.316;2023-03-15T10:30:47;94065.13;;;4.88;80.97
21588;BME280;10956;48.878;13.316;2023-03-15T10:35:40;94064.66;;;4.63;79.80
21588;BME280;10956;48.878;13.316;2023-03-15T10:38:21;94070.53;;;4.70;80.01
21588;BME280;10956;48.878;13.316;2023-03-15T10:40:50;94076.34;;;4.60;78.50
21588;BME280;10956;48.878;13.316;2023-03-15T10:45:41;94073.28;;;4.63;78.76
21588;BME280;10956;48.878;13.316;2023-03-15T10:48:10;94074.69;;;4.82;78.74
21588;BME280;10956;48.878;13.316;2023-03-15T10:50:37;94076.28;;;4.83;78.80
21588;BME280;10956;48.878;13.316;2023-03-15T10:53:10;94081.88;;;4.75;79.70
21588;BME280;10956;48.878;13.316;2023-03-15T10:55:42;94083.56;;;4.81;81.87
21588;BME280;10956;48.878;13.316;2023-03-15T10:58:37;94081.31;;;4.73;81.83
21588;BME280;10956;48.878;13.316;2023-03-15T11:01:06;94071.63;;;4.85;81.77
21588;BME280;10956;48.878;13.316;2023-03-15T11:03:33;94071.69;;;5.19;81.84
21588;BME280;10956;48.878;13.316;2023-03-15T11:05:59;94072.09;;;5.28;79.73
21588;BME280;10956;48.878;13.316;2023-03-15T11:08:39;94065.13;;;5.16;81.91
21588;BME280;10956;48.878;13.316;2023-03-15T11:11:06;94072.72;;;5.18;83.42
21588;BME280;10956;48.878;13.316;2023-03-15T11:13:34;94068.22;;;5.30;82.66
21588;BME280;10956;48.878;13.316;2023-03-15T11:18:54;94081.63;;;5.50;84.34
21588;BME280;10956;48.878;13.316;2023-03-15T11:21:25;94067.69;;;5.28;79.09
21588;BME280;10956;48.878;13.316;2023-03-15T11:23:55;94067.69;;;5.28;83.17
21588;BME280;10956;48.878;13.316;2023-03-15T11:26:24;94063.16;;;5.24;86.56
21588;BME280;10956;48.878;13.316;2023-03-15T11:28:59;94069.56;;;5.16;88.48
21588;BME280;10956;48.878;13.316;2023-03-15T11:31:26;94075.03;;;5.31;91.00
21588;BME280;10956;48.878;13.316;2023-03-15T11:33:56;94070.88;;;5.64;89.27
21588;BME280;10956;48.878;13.316;2023-03-15T11:36:25;94069.13;;;5.86;88.25
21588;BME280;10956;48.878;13.316;2023-03-15T11:38:54;94063.81;;;5.81;92.75
21588;BME280;10956;48.878;13.316;2023-03-15T11:41:30;94069.13;;;5.86;97.57
21588;BME280;10956;48.878;13.316;2023-03-15T11:46:48;94077.19;;;5.84;92.55
21588;BME280;10956;48.878;13.316;2023-03-15T11:49:18;94079.41;;;5.76;84.10
21588;BME280;10956;48.878;13.316;2023-03-15T11:51:46;94068.72;;;5.77;86.00
21588;BME280;10956;48.878;13.316;2023-03-15T11:54:16;94077.84;;;5.92;86.04
21588;BME280;10956;48.878;13.316;2023-03-15T11:56:50;94068.97;;;6.09;84.38
21588;BME280;10956;48.878;13.316;2023-03-15T11:59:20;94064.38;;;6.38;82.35
21588;BME280;10956;48.878;13.316;2023-03-15T12:01:53;94055.38;;;6.51;81.40
21588;BME280;10956;48.878;13.316;2023-03-15T12:07:00;94039.94;;;6.11;91.57
21588;BME280;10956;48.878;13.316;2023-03-15T12:11:58;94045.75;;;6.35;90.82
21588;BME280;10956;48.878;13.316;2023-03-15T12:14:27;94042.72;;;6.43;82.88
21588;BME280;10956;48.878;13.316;2023-03-15T12:20:03;94045.50;;;6.58;85.15
21588;BME280;10956;48.878;13.316;2023-03-15T12:22:34;94049.09;;;6.52;84.92
21588;BME280;10956;48.878;13.316;2023-03-15T12:25:14;94046.28;;;6.37;82.54
21588;BME280;10956;48.878;13.316;2023-03-15T12:27:51;94052.13;;;6.44;81.95
21588;BME280;10956;48.878;13.316;2023-03-15T12:30:41;94041.84;;;6.59;79.25
21588;BME280;10956;48.878;13.316;2023-03-15T12:33:18;94027.03;;;6.70;79.66
21588;BME280;10956;48.878;13.316;2023-03-15T12:35:44;94030.13;;;6.89;83.23
21588;BME280;10956;48.878;13.316;2023-03-15T12:38:21;94028.66;;;6.98;83.48
21588;BME280;10956;48.878;13.316;2023-03-15T12:40:53;94026.56;;;7.00;81.21
21588;BME280;10956;48.878;13.316;2023-03-15T12:43:51;94024.84;;;6.84;85.34
21588;BME280;10956;48.878;13.316;2023-03-15T12:52:05;94019.59;;;6.84;83.14
21588;BME280;10956;48.878;13.316;2023-03-15T12:54:59;94026.09;;;6.54;80.50
21588;BME280;10956;48.878;13.316;2023-03-15T12:57:27;94028.88;;;6.26;79.93
21588;BME280;10956;48.878;13.316;2023-03-15T13:00:05;94027.50;;;6.01;80.25
21588;BME280;10956;48.878;13.316;2023-03-15T13:02:34;94028.16;;;5.75;78.39
21588;BME280;10956;48.878;13.316;2023-03-15T13:12:48;94046.06;;;4.88;78.13
21588;BME280;10956;48.878;13.316;2023-03-15T13:15:55;94051.56;;;4.74;77.37
21588;BME280;10956;48.878;13.316;2023-03-15T13:18:23;94054.81;;;4.53;75.67
21588;BME280;10956;48.878;13.316;2023-03-15T13:21:16;94067.78;;;4.36;75.11
21588;BME280;10956;48.878;13.316;2023-03-15T13:23:55;94056.41;;;4.54;76.77
21588;BME280;10956;48.878;13.316;2023-03-15T13:26:44;94061.47;;;4.61;76.12
21588;BME280;10956;48.878;13.316;2023-03-15T13:29:28;94060.78;;;4.65;74.68
21588;BME280;10956;48.878;13.316;2023-03-15T13:32:14;94067.50;;;4.61;72.78
21588;BME280;10956;48.878;13.316;2023-03-15T13:34:43;94062.94;;;4.68;72.76
21588;BME280;10956;48.878;13.316;2023-03-15T13:37:19;94065.97;;;4.77;73.06
21588;BME280;10956;48.878;13.316;2023-03-15T13:40:03;94068.16;;;4.68;73.74
21588;BME280;10956;48.878;13.316;2023-03-15T13:42:29;94070.00;;;4.56;74.64
21588;BME280;10956;48.878;13.316;2023-03-15T13:47:30;94077.75;;;4.51;75.49
21588;BME280;10956;48.878;13.316;2023-03-15T13:49:56;94070.94;;;4.50;75.93
21588;BME280;10956;48.878;13.316;2023-03-15T13:52:22;94080.69;;;4.43;75.71
21588;BME280;10956;48.878;13.316;2023-03-15T13:54:47;94083.53;;;4.41;75.84
21588;BME280;10956;48.878;13.316;2023-03-15T13:57:16;94087.75;;;4.31;75.29